Time;durP1;ratioP1;P1;durP2;ratioP2;P2;SDS_P1;SDS_P2;PMS_P1;PMS_P2;Temp;Humidity;BMP_temperature;BMP_pressure;BME280_temperature;BME280_humidity;BME280_pressure;Samples;Min_cycle;Max_cycle;Signal;HPM_P1;HPM_P2
2023/06/01 00:00:14;;;;;;;9.30;3.03;;;14.20;64.40;;;;;;4930705;29;20056;-75
2023/06/01 00:02:41;;;;;;;10.60;3.45;;;14.20;64.40;;;;;;4928783;29;20305;-75
2023/06/01 00:05:09;;;;;;;9.52;3.20;;;14.10;64.50;;;;;;4929267;29;20518;-75
2023/06/01 00:07:36;;;;;;;9.55;3.15;;;14.10;64.70;;;;;;4929344;29;20056;-75
2023/06/01 00:10:03;;;;;;;10.07;3.58;;;14.10;64.70;;;;;;4930598;29;20052;-74
2023/06/01 00:12:30;;;;;;;12.70;3.77;;;14.10;64.60;;;;;;4930607;29;20135;-74
2023/06/01 00:14:58;;;;;;;12.93;3.50;;;14.10;64.70;;;;;;4928985;29;20260;-75
2023/06/01 00:17:25;;;;;;;7.30;2.80;;;14.10;64.60;;;;;;4928873;29;20100;-75
2023/06/01 00:19:53;;;;;;;7.88;3.00;;;14.10;64.60;;;;;;4927619;29;20061;-74
2023/06/01 00:22:20;;;;;;;10.30;3.28;;;14.10;64.70;;;;;;4929919;29;20067;-75
2023/06/01 00:24:47;;;;;;;8.63;3.33;;;14.10;64.80;;;;;;4930414;29;20139;-74
2023/06/01 00:27:14;;;;;;;12.85;3.30;;;14.00;64.90;;;;;;4961096;28;20269;-75
2023/06/01 00:29:41;;;;;;;11.80;3.10;;;14.00;64.90;;;;;;4930251;29;20084;-75
2023/06/01 00:32:10;;;;;;;8.15;3.08;;;14.00;65.00;;;;;;4928040;29;20143;-74
2023/06/01 00:34:36;;;;;;;8.57;2.97;;;14.00;65.10;;;;;;4931371;29;20475;-74
2023/06/01 00:37:04;;;;;;;10.37;3.43;;;14.00;65.20;;;;;;4932322;29;20639;-75
2023/06/01 00:39:30;;;;;;;11.30;3.40;;;14.00;65.10;;;;;;4930960;29;20340;-74
2023/06/01 00:41:57;;;;;;;9.05;3.20;;;14.00;65.00;;;;;;4947818;28;20056;-75
2023/06/01 00:44:24;;;;;;;10.68;3.50;;;14.00;65.00;;;;;;4932162;29;20447;-75
2023/06/01 00:46:51;;;;;;;10.77;3.35;;;14.00;64.80;;;;;;4916069;29;20471;-75
2023/06/01 00:49:20;;;;;;;9.97;3.60;;;14.00;64.70;;;;;;4931784;29;20048;-74
2023/06/01 00:51:47;;;;;;;10.20;3.45;;;14.00;64.80;;;;;;4947553;28;20730;-75
2023/06/01 00:54:14;;;;;;;13.65;3.85;;;14.00;64.70;;;;;;4933538;29;20573;-75
2023/06/01 00:56:41;;;;;;;8.20;3.45;;;14.00;64.80;;;;;;4947933;28;20056;-75
2023/06/01 00:59:08;;;;;;;10.07;3.50;;;14.00;64.80;;;;;;4931643;29;20507;-75
2023/06/01 01:01:36;;;;;;;12.27;3.53;;;14.00;65.00;;;;;;4931452;29;20864;-74
2023/06/01 01:04:03;;;;;;;8.95;3.70;;;13.90;65.10;;;;;;4931656;29;20324;-75
2023/06/01 01:06:56;;;;;;;9.02;3.67;;;13.90;65.10;;;;;;4932333;29;20135;-75
2023/06/01 01:09:33;;;;;;;8.55;3.17;;;13.90;64.80;;;;;;4933242;29;20056;-75
2023/06/01 01:12:03;;;;;;;10.43;3.78;;;13.90;64.80;;;;;;4931773;29;20069;-75
2023/06/01 01:14:37;;;;;;;10.30;3.67;;;13.90;64.90;;;;;;4916117;29;20692;-75
2023/06/01 01:17:11;;;;;;;10.15;3.67;;;13.90;64.90;;;;;;4935151;28;20340;-75
2023/06/01 01:19:53;;;;;;;10.05;3.50;;;13.90;64.80;;;;;;4926393;29;20052;-75
2023/06/01 01:22:36;;;;;;;12.35;3.30;;;13.90;64.60;;;;;;4949362;28;20753;-75
2023/06/01 01:25:21;;;;;;;11.60;3.63;;;13.90;64.70;;;;;;4915336;29;20063;-74
2023/06/01 01:28:09;;;;;;;11.40;4.10;;;13.90;65.00;;;;;;4931602;29;20606;-75
2023/06/01 01:30:40;;;;;;;10.90;3.65;;;13.90;64.90;;;;;;4947179;28;20268;-75
2023/06/01 01:33:08;;;;;;;8.10;3.10;;;13.90;65.00;;;;;;4931028;29;20064;-75
2023/06/01 01:35:35;;;;;;;9.40;3.75;;;13.90;65.00;;;;;;4931933;29;20048;-75
2023/06/01 01:38:03;;;;;;;9.30;3.53;;;13.80;65.00;;;;;;4931615;29;20044;-76
2023/06/01 01:40:30;;;;;;;10.97;3.67;;;13.90;65.00;;;;;;4947388;28;20226;-75
2023/06/01 01:42:57;;;;;;;10.30;3.50;;;13.80;65.00;;;;;;4931207;29;20862;-75
2023/06/01 01:45:25;;;;;;;11.70;4.00;;;13.90;65.20;;;;;;4930173;29;20052;-75
2023/06/01 01:47:59;;;;;;;11.95;3.40;;;13.80;65.20;;;;;;4947182;28;20518;-75
2023/06/01 01:50:33;;;;;;;9.27;3.55;;;13.80;65.20;;;;;;4932513;28;20059;-75
2023/06/01 01:53:01;;;;;;;10.33;3.43;;;13.80;65.20;;;;;;4947458;28;20051;-76
2023/06/01 01:55:31;;;;;;;10.93;3.83;;;13.80;65.30;;;;;;4931262;29;20620;-75
2023/06/01 01:58:02;;;;;;;9.45;3.63;;;13.70;65.30;;;;;;4931130;29;20044;-76
2023/06/01 02:00:29;;;;;;;8.82;3.33;;;13.70;65.20;;;;;;4930774;29;20056;-75
2023/06/01 02:02:58;;;;;;;11.18;3.30;;;13.70;65.20;;;;;;4946908;28;20063;-75
2023/06/01 02:05:25;;;;;;;8.80;3.50;;;13.70;65.40;;;;;;4947211;28;20135;-75
2023/06/01 02:07:52;;;;;;;9.52;3.30;;;13.70;65.40;;;;;;4947409;28;20404;-75
2023/06/01 02:10:19;;;;;;;7.50;2.90;;;13.70;65.40;;;;;;4930786;29;20111;-76
2023/06/01 02:12:46;;;;;;;7.97;3.22;;;13.60;65.60;;;;;;4931228;29;20108;-74
2023/06/01 02:15:13;;;;;;;12.05;3.95;;;13.60;65.60;;;;;;4932488;29;20115;-75
2023/06/01 02:17:40;;;;;;;9.73;3.57;;;13.60;65.70;;;;;;4931156;29;20048;-74
2023/06/01 02:20:11;;;;;;;8.43;3.03;;;13.60;65.80;;;;;;4930291;29;20411;-75
2023/06/01 02:22:38;;;;;;;10.43;3.10;;;13.60;65.80;;;;;;4915054;29;20052;-76
2023/06/01 02:25:06;;;;;;;9.57;3.35;;;13.60;65.70;;;;;;4914974;29;20047;-75
2023/06/01 02:27:33;;;;;;;9.20;3.00;;;13.60;65.80;;;;;;4915003;29;20046;-75
2023/06/01 02:30:00;;;;;;;10.20;3.60;;;13.60;65.90;;;;;;4914966;29;20052;-74
2023/06/01 02:32:30;;;;;;;10.23;3.65;;;13.60;65.90;;;;;;4914077;29;20284;-75
2023/06/01 02:34:57;;;;;;;9.63;3.40;;;13.60;65.70;;;;;;4930824;29;20171;-74
2023/06/01 02:37:26;;;;;;;10.93;3.60;;;13.60;65.90;;;;;;4930915;29;20056;-75
2023/06/01 02:39:53;;;;;;;10.63;3.53;;;13.60;65.90;;;;;;4930376;29;20057;-75
2023/06/01 02:42:22;;;;;;;9.53;3.27;;;13.60;65.70;;;;;;4914060;29;20064;-75
2023/06/01 02:44:48;;;;;;;11.05;3.80;;;13.60;65.70;;;;;;4914489;29;20731;-75
2023/06/01 02:47:16;;;;;;;8.60;3.65;;;13.60;65.80;;;;;;4914357;29;20071;-75
2023/06/01 02:49:43;;;;;;;11.15;3.50;;;13.60;65.70;;;;;;4914544;29;20135;-76
2023/06/01 02:52:10;;;;;;;8.18;3.88;;;13.60;65.70;;;;;;4914258;29;20294;-75
2023/06/01 02:54:38;;;;;;;10.03;3.53;;;13.50;65.50;;;;;;4914525;29;20056;-75
2023/06/01 02:57:22;;;;;;;9.63;3.42;;;13.60;65.30;;;;;;4914678;29;20800;-75
2023/06/01 02:59:55;;;;;;;9.23;3.38;;;13.50;65.40;;;;;;4936774;28;20247;-75
2023/06/01 03:02:22;;;;;;;12.35;3.53;;;13.50;65.40;;;;;;4926345;28;20063;-75
2023/06/01 03:04:50;;;;;;;10.52;3.95;;;13.50;65.50;;;;;;4942484;28;20609;-75
2023/06/01 03:07:18;;;;;;;10.20;4.20;;;13.50;65.50;;;;;;4945164;28;20052;-75
2023/06/01 03:09:55;;;;;;;9.23;3.30;;;13.50;65.50;;;;;;4928351;29;20296;-74
2023/06/01 03:12:42;;;;;;;9.43;3.40;;;13.50;65.40;;;;;;4929105;29;20067;-75
2023/06/01 03:15:10;;;;;;;10.32;3.50;;;13.50;65.10;;;;;;4945590;28;20471;-75
2023/06/01 03:17:38;;;;;;;9.93;3.53;;;13.50;65.40;;;;;;4914228;29;20107;-74
2023/06/01 03:20:14;;;;;;;8.07;3.60;;;13.50;65.10;;;;;;4929403;28;20508;-75
2023/06/01 03:22:42;;;;;;;8.43;3.10;;;13.50;65.10;;;;;;4913774;29;20296;-76
2023/06/01 03:25:12;;;;;;;10.80;3.78;;;13.50;65.20;;;;;;4929679;29;20056;-75
2023/06/01 03:27:39;;;;;;;8.55;3.20;;;13.50;65.30;;;;;;4929907;29;20566;-75
2023/06/01 03:30:09;;;;;;;8.40;2.92;;;13.40;65.40;;;;;;4929246;29;20056;-75
2023/06/01 03:32:37;;;;;;;9.77;3.50;;;13.40;65.20;;;;;;4913080;29;20553;-75
2023/06/01 03:35:07;;;;;;;12.93;3.30;;;13.40;65.40;;;;;;4913254;29;20257;-75
2023/06/01 03:37:35;;;;;;;9.27;3.10;;;13.30;65.40;;;;;;4928643;29;20056;-75
2023/06/01 03:40:10;;;;;;;9.30;3.20;;;13.30;65.30;;;;;;4926911;29;20519;-75
2023/06/01 03:42:38;;;;;;;9.35;3.25;;;13.30;65.40;;;;;;4944856;28;20056;-75
2023/06/01 03:45:06;;;;;;;9.63;2.80;;;13.30;65.70;;;;;;4929072;29;20055;-75
2023/06/01 03:47:33;;;;;;;8.27;2.80;;;13.30;65.90;;;;;;4929469;29;20815;-75
2023/06/01 03:50:01;;;;;;;6.68;2.45;;;13.30;66.10;;;;;;4929157;29;21047;-75
2023/06/01 03:52:28;;;;;;;7.30;2.60;;;13.30;66.00;;;;;;4945160;28;20538;-75
2023/06/01 03:54:56;;;;;;;8.65;2.60;;;13.30;66.20;;;;;;4945156;28;20055;-75
2023/06/01 03:57:47;;;;;;;6.43;2.40;;;13.20;66.20;;;;;;4929509;29;20056;-75
2023/06/01 04:00:20;;;;;;;7.40;2.50;;;13.20;66.10;;;;;;4928931;29;20806;-75
2023/06/01 04:02:55;;;;;;;6.95;2.40;;;13.20;66.50;;;;;;4930378;28;20056;-75
2023/06/01 04:05:23;;;;;;;8.05;2.70;;;13.20;66.60;;;;;;4929056;29;20056;-74
2023/06/01 04:07:53;;;;;;;7.88;2.65;;;13.10;66.40;;;;;;4931077;29;20051;-75
2023/06/01 04:10:20;;;;;;;7.03;2.23;;;13.20;66.60;;;;;;4948686;28;20139;-75
2023/06/01 04:12:50;;;;;;;8.90;2.45;;;13.10;66.50;;;;;;4932518;29;20293;-75
2023/06/01 04:15:19;;;;;;;8.50;2.70;;;13.20;66.70;;;;;;4932804;29;20046;-75
2023/06/01 04:17:47;;;;;;;6.72;2.55;;;13.20;66.80;;;;;;4949254;28;20613;-76
2023/06/01 04:20:15;;;;;;;8.82;2.75;;;13.10;66.90;;;;;;4933555;28;20116;-75
2023/06/01 04:22:43;;;;;;;6.97;2.70;;;13.10;66.90;;;;;;4932196;29;20139;-75
2023/06/01 04:25:12;;;;;;;8.35;2.60;;;13.10;66.60;;;;;;4916076;29;20793;-75
2023/06/01 04:27:45;;;;;;;7.35;2.80;;;13.20;66.70;;;;;;4916101;29;20052;-74
2023/06/01 04:30:15;;;;;;;8.20;3.10;;;13.20;66.80;;;;;;4933586;28;20056;-75
2023/06/01 04:32:43;;;;;;;8.30;3.20;;;13.10;66.90;;;;;;4915923;29;20495;-75
2023/06/01 04:35:12;;;;;;;9.20;3.47;;;13.10;66.70;;;;;;4916570;29;20049;-75
2023/06/01 04:37:40;;;;;;;9.10;3.00;;;13.10;66.90;;;;;;4932130;29;20309;-75
2023/06/01 04:40:10;;;;;;;7.78;3.05;;;13.10;67.00;;;;;;4932200;29;20104;-75
2023/06/01 04:42:40;;;;;;;8.82;3.22;;;13.10;67.00;;;;;;4948948;28;20584;-75
2023/06/01 04:45:09;;;;;;;9.45;3.08;;;13.10;66.70;;;;;;4935767;28;20455;-75
2023/06/01 04:47:39;;;;;;;9.33;3.00;;;13.10;67.10;;;;;;4935296;28;20441;-75
2023/06/01 04:50:11;;;;;;;8.40;3.03;;;13.10;66.90;;;;;;4950888;28;20292;-75
2023/06/01 04:52:39;;;;;;;10.23;3.40;;;13.20;66.70;;;;;;4967067;28;20056;-75
2023/06/01 04:55:07;;;;;;;7.72;3.00;;;13.20;67.20;;;;;;4951051;28;20502;-75
2023/06/01 04:57:35;;;;;;;11.13;3.45;;;13.20;67.20;;;;;;4950836;28;20055;-75
2023/06/01 05:00:06;;;;;;;11.07;3.30;;;13.20;67.00;;;;;;4966823;28;20111;-75
2023/06/01 05:02:33;;;;;;;7.20;2.28;;;13.20;67.20;;;;;;4950656;28;20339;-75
2023/06/01 05:05:01;;;;;;;6.07;2.80;;;13.20;66.60;;;;;;4967205;28;20058;-75
2023/06/01 05:07:29;;;;;;;9.27;3.08;;;13.10;67.10;;;;;;4950925;28;20040;-75
2023/06/01 05:09:56;;;;;;;8.20;3.08;;;13.10;67.50;;;;;;4950848;28;20063;-75
2023/06/01 05:12:23;;;;;;;7.87;2.70;;;13.10;67.80;;;;;;4961170;28;20160;-75
2023/06/01 05:14:50;;;;;;;6.80;2.67;;;13.10;67.50;;;;;;4940082;28;20279;-75
2023/06/01 05:17:17;;;;;;;6.50;2.80;;;13.10;67.60;;;;;;4936971;28;20055;-75
2023/06/01 05:19:45;;;;;;;9.60;2.90;;;13.10;67.70;;;;;;4947516;28;20443;-75
2023/06/01 05:22:13;;;;;;;9.65;3.00;;;13.10;68.00;;;;;;4931788;28;20063;-75
2023/06/01 05:24:40;;;;;;;9.27;3.70;;;13.10;68.20;;;;;;4923463;29;20056;-75
2023/06/01 05:27:10;;;;;;;9.50;3.00;;;13.10;68.40;;;;;;4928402;29;20317;-75
2023/06/01 05:29:37;;;;;;;9.80;3.20;;;13.10;68.20;;;;;;4912420;29;20136;-75
2023/06/01 05:32:05;;;;;;;9.73;3.00;;;13.10;68.20;;;;;;4926054;29;20048;-75
2023/06/01 05:34:32;;;;;;;9.98;3.00;;;13.10;68.20;;;;;;4927277;29;20052;-75
2023/06/01 05:37:00;;;;;;;9.73;3.23;;;13.10;68.20;;;;;;4941850;28;20471;-75
2023/06/01 05:39:29;;;;;;;9.68;3.33;;;13.10;68.20;;;;;;4936341;28;20287;-75
2023/06/01 05:41:57;;;;;;;7.90;2.97;;;13.10;68.10;;;;;;4934324;28;20056;-75
2023/06/01 05:44:24;;;;;;;11.30;3.00;;;13.20;67.90;;;;;;4936034;28;20058;-75
2023/06/01 05:46:53;;;;;;;8.45;3.70;;;13.20;67.90;;;;;;4929418;29;20059;-75
2023/06/01 05:49:20;;;;;;;8.37;3.17;;;13.20;68.10;;;;;;4934024;28;20063;-75
2023/06/01 05:51:48;;;;;;;8.60;2.67;;;13.20;68.20;;;;;;4929605;28;20906;-75
2023/06/01 05:54:15;;;;;;;9.63;3.08;;;13.20;68.50;;;;;;4928760;29;20048;-76
2023/06/01 05:56:45;;;;;;;7.88;2.95;;;13.20;68.80;;;;;;4926240;29;20056;-75
2023/06/01 05:59:14;;;;;;;8.07;2.65;;;13.20;68.90;;;;;;4929082;29;20123;-75
2023/06/01 06:01:42;;;;;;;8.67;2.83;;;13.10;68.70;;;;;;4920550;28;20059;-75
2023/06/01 06:04:09;;;;;;;9.70;2.80;;;13.20;69.00;;;;;;4945369;28;20263;-76
2023/06/01 06:06:36;;;;;;;6.60;2.20;;;13.10;68.70;;;;;;4930738;29;20060;-75
2023/06/01 06:09:04;;;;;;;6.97;2.15;;;13.20;68.70;;;;;;4929581;29;20127;-75
2023/06/01 06:11:31;;;;;;;6.90;2.22;;;13.30;68.90;;;;;;4930955;29;20135;-75
2023/06/01 06:13:59;;;;;;;6.23;2.17;;;13.20;68.90;;;;;;4929089;29;20052;-75
2023/06/01 06:16:26;;;;;;;8.63;2.88;;;13.20;68.80;;;;;;4930804;28;20344;-76
2023/06/01 06:18:53;;;;;;;7.15;2.35;;;13.20;68.80;;;;;;4929990;28;20059;-76
2023/06/01 06:21:21;;;;;;;9.18;3.03;;;13.20;69.00;;;;;;4933995;28;20167;-75
2023/06/01 06:23:49;;;;;;;7.65;2.45;;;13.20;68.90;;;;;;4926513;28;20051;-75
2023/06/01 06:26:16;;;;;;;9.47;2.63;;;13.20;68.80;;;;;;4926394;28;20062;-76
2023/06/01 06:28:43;;;;;;;9.38;2.88;;;13.20;68.90;;;;;;4933141;28;20359;-76
2023/06/01 06:31:12;;;;;;;5.47;2.33;;;13.20;69.00;;;;;;4934266;28;20853;-76
2023/06/01 06:33:39;;;;;;;8.13;2.70;;;13.10;68.70;;;;;;4931361;28;20139;-74
2023/06/01 06:36:06;;;;;;;50.28;28.00;;;13.20;68.60;;;;;;4930579;28;20051;-75
2023/06/01 06:38:34;;;;;;;11.27;3.77;;;13.10;68.70;;;;;;4938765;28;20080;-75
2023/06/01 06:41:01;;;;;;;8.85;3.17;;;13.10;68.80;;;;;;4936116;28;20383;-75
2023/06/01 06:43:28;;;;;;;7.15;2.63;;;13.10;69.10;;;;;;4929629;28;20055;-75
2023/06/01 06:45:55;;;;;;;8.50;2.55;;;13.10;69.20;;;;;;4920498;28;20142;-75
2023/06/01 06:48:24;;;;;;;7.15;2.28;;;13.10;69.10;;;;;;4958808;28;20041;-74
2023/06/01 06:50:51;;;;;;;8.53;2.33;;;13.10;69.30;;;;;;4936919;28;20066;-74
2023/06/01 06:53:18;;;;;;;7.10;2.35;;;13.10;69.30;;;;;;4934645;28;20799;-73
2023/06/01 06:55:45;;;;;;;6.43;2.58;;;13.10;69.40;;;;;;4935322;28;20051;-73
2023/06/01 06:58:13;;;;;;;6.10;2.10;;;13.10;69.10;;;;;;4930211;28;20871;-73
2023/06/01 07:00:40;;;;;;;6.75;2.20;;;13.20;69.10;;;;;;4961899;28;20201;-73
2023/06/01 07:03:08;;;;;;;6.43;2.40;;;13.20;69.10;;;;;;4933385;28;20083;-73
2023/06/01 07:05:37;;;;;;;6.82;2.22;;;13.20;69.40;;;;;;4931488;28;20342;-73
2023/06/01 07:08:04;;;;;;;7.10;2.60;;;13.10;69.80;;;;;;4938309;28;20100;-73
2023/06/01 07:10:31;;;;;;;5.78;2.38;;;13.10;70.00;;;;;;4929944;28;20054;-74
2023/06/01 07:12:58;;;;;;;43.00;30.33;;;13.10;70.10;;;;;;4932576;28;20112;-75
2023/06/01 07:15:55;;;;;;;21.17;17.83;;;13.10;69.70;;;;;;4935006;28;20877;-75
2023/06/01 07:18:22;;;;;;;7.38;3.13;;;13.00;69.90;;;;;;4932613;28;20945;-75
2023/06/01 07:20:51;;;;;;;7.13;2.45;;;13.00;70.30;;;;;;4930791;29;20056;-75
2023/06/01 07:23:18;;;;;;;6.45;2.70;;;13.00;70.10;;;;;;4936024;28;20138;-76
2023/06/01 07:25:45;;;;;;;7.72;2.85;;;13.00;70.00;;;;;;4930395;28;20063;-75
2023/06/01 07:28:13;;;;;;;9.43;3.37;;;13.00;70.00;;;;;;4935622;28;20051;-74
2023/06/01 07:30:40;;;;;;;6.85;2.40;;;13.10;69.80;;;;;;4928964;28;20355;-73
2023/06/01 07:33:07;;;;;;;7.10;2.17;;;13.10;69.90;;;;;;4936018;28;20529;-74
2023/06/01 07:35:35;;;;;;;7.95;2.60;;;13.10;69.80;;;;;;4929718;28;20087;-76
2023/06/01 07:38:03;;;;;;;8.88;2.80;;;13.10;69.80;;;;;;4938044;28;20051;-77
2023/06/01 07:40:30;;;;;;;9.60;2.83;;;13.10;69.40;;;;;;4925852;29;21009;-77
2023/06/01 07:42:57;;;;;;;35.45;4.15;;;13.10;69.50;;;;;;4938892;28;20317;-75
2023/06/01 07:45:25;;;;;;;10.13;2.67;;;13.20;69.70;;;;;;4934205;28;20459;-79
2023/06/01 07:47:53;;;;;;;7.20;2.33;;;13.20;70.00;;;;;;4929574;29;20052;-78
2023/06/01 07:50:20;;;;;;;7.43;2.72;;;13.30;70.30;;;;;;4937101;28;20063;-84
2023/06/01 07:52:47;;;;;;;8.10;2.40;;;13.20;70.10;;;;;;4926156;29;20169;-82
2023/06/01 07:55:16;;;;;;;9.02;2.35;;;13.20;69.90;;;;;;4937325;28;20260;-79
2023/06/01 07:57:43;;;;;;;6.80;2.00;;;13.30;69.80;;;;;;4947483;28;20690;-81
2023/06/01 08:00:12;;;;;;;7.00;1.90;;;13.30;69.90;;;;;;4928009;29;20121;-78
2023/06/01 08:02:39;;;;;;;17.98;12.48;;;13.30;69.60;;;;;;4928637;29;20052;-77
2023/06/01 08:05:09;;;;;;;11.10;2.47;;;13.30;69.60;;;;;;4930899;28;20510;-77
2023/06/01 08:07:37;;;;;;;4.85;1.75;;;13.30;69.60;;;;;;4939244;28;20284;-80
2023/06/01 08:10:05;;;;;;;7.25;2.17;;;13.30;69.80;;;;;;4928884;28;20094;-77
2023/06/01 08:12:34;;;;;;;6.53;1.90;;;13.30;69.90;;;;;;4928329;28;20058;-78
2023/06/01 08:15:01;;;;;;;6.18;1.83;;;13.30;70.10;;;;;;4929475;29;20066;-78
2023/06/01 08:17:31;;;;;;;4.80;1.73;;;13.30;70.00;;;;;;4920123;29;20131;-80
2023/06/01 08:19:58;;;;;;;5.90;1.60;;;13.40;69.70;;;;;;4957548;28;20847;-81
2023/06/01 08:22:25;;;;;;;7.40;2.13;;;13.40;69.50;;;;;;4923044;28;20079;-81
2023/06/01 08:24:52;;;;;;;7.13;2.35;;;13.30;69.60;;;;;;4934064;28;20512;-79
2023/06/01 08:27:21;;;;;;;6.45;1.88;;;13.30;69.60;;;;;;4933210;28;20052;-79
2023/06/01 08:29:50;;;;;;;5.00;2.00;;;13.30;70.10;;;;;;4931184;28;20056;-80
2023/06/01 08:32:18;;;;;;;4.95;1.60;;;13.30;69.90;;;;;;4946791;28;20260;-80
2023/06/01 08:34:46;;;;;;;7.05;1.80;;;13.30;69.70;;;;;;4937042;28;20139;-80
2023/06/01 08:37:13;;;;;;;4.97;1.48;;;13.30;69.60;;;;;;4932185;28;20108;-80
2023/06/01 08:39:41;;;;;;;7.07;1.90;;;13.40;69.50;;;;;;4936744;28;20767;-79
2023/06/01 08:42:14;;;;;;;6.17;1.93;;;13.40;69.40;;;;;;4929316;28;20060;-80
2023/06/01 08:44:42;;;;;;;7.05;1.80;;;13.40;69.40;;;;;;4931452;28;20806;-80
2023/06/01 08:47:11;;;;;;;6.45;1.63;;;13.50;69.50;;;;;;4936510;28;20059;-80
2023/06/01 08:49:41;;;;;;;4.40;1.48;;;13.50;69.40;;;;;;4930795;28;20514;-81
2023/06/01 08:52:12;;;;;;;4.18;1.20;;;13.50;69.50;;;;;;4929448;28;20529;-81
2023/06/01 08:54:39;;;;;;;3.77;1.30;;;13.50;69.40;;;;;;4946462;28;20135;-82
2023/06/01 08:57:08;;;;;;;5.65;1.45;;;13.50;69.20;;;;;;4935408;28;21407;-79
2023/06/01 08:59:36;;;;;;;4.63;1.10;;;13.60;69.40;;;;;;4937367;28;20099;-79
2023/06/01 09:02:03;;;;;;;4.15;1.02;;;13.60;69.50;;;;;;4917356;28;20048;-79
2023/06/01 09:04:34;;;;;;;4.68;1.10;;;13.60;69.50;;;;;;4931787;29;20171;-83
2023/06/01 09:07:02;;;;;;;3.03;0.87;;;13.70;69.70;;;;;;4929376;29;20182;-80
2023/06/01 09:09:29;;;;;;;5.10;1.48;;;13.70;69.30;;;;;;4928779;29;20277;-79
2023/06/01 09:12:19;;;;;;;5.68;1.38;;;13.70;69.70;;;;;;4915826;28;20048;-79
2023/06/01 09:14:46;;;;;;;4.60;1.00;;;13.70;69.40;;;;;;4946633;28;20126;-79
2023/06/01 09:17:15;;;;;;;4.68;0.90;;;13.80;69.90;;;;;;4927851;28;20062;-79
2023/06/01 09:19:45;;;;;;;3.33;0.97;;;13.90;70.10;;;;;;4931212;29;20063;-78
2023/06/01 09:22:12;;;;;;;4.57;0.88;;;13.90;69.90;;;;;;4931038;29;20694;-79
2023/06/01 09:24:40;;;;;;;4.00;1.00;;;13.90;70.00;;;;;;4933096;29;20052;-78
2023/06/01 09:27:08;;;;;;;3.17;0.70;;;13.90;69.80;;;;;;4931297;29;20048;-78
2023/06/01 09:29:35;;;;;;;4.18;0.90;;;13.90;69.50;;;;;;4932370;28;20084;-77
2023/06/01 09:32:27;;;;;;;3.20;1.00;;;14.00;70.50;;;;;;4931480;28;20064;-80
2023/06/01 09:34:55;;;;;;;2.70;0.80;;;14.00;70.30;;;;;;4930484;29;20365;-79
2023/06/01 09:37:22;;;;;;;3.50;0.98;;;14.00;70.80;;;;;;4936454;28;20052;-79
2023/06/01 09:39:49;;;;;;;3.80;0.90;;;14.00;71.20;;;;;;4938826;28;20056;-79
2023/06/01 09:42:16;;;;;;;2.95;0.80;;;14.10;70.90;;;;;;4932708;28;20098;-80
2023/06/01 09:44:44;;;;;;;2.23;0.60;;;14.10;70.80;;;;;;4917598;28;20102;-78
2023/06/01 09:47:13;;;;;;;2.85;0.60;;;14.10;70.40;;;;;;4946351;28;21272;-78
2023/06/01 09:49:41;;;;;;;3.08;0.70;;;14.00;70.40;;;;;;4932135;28;20066;-81
2023/06/01 09:52:14;;;;;;;3.42;0.80;;;14.10;70.40;;;;;;4962403;28;20056;-79
2023/06/01 09:54:43;;;;;;;3.78;1.10;;;14.10;70.40;;;;;;4960661;28;20924;-78
2023/06/01 09:57:12;;;;;;;4.57;0.80;;;14.10;70.30;;;;;;4931012;28;20142;-78
2023/06/01 09:59:41;;;;;;;3.50;1.00;;;14.10;70.40;;;;;;4969365;28;20395;-78
2023/06/01 10:02:14;;;;;;;4.05;0.95;;;14.10;70.50;;;;;;4931799;28;20051;-78
2023/06/01 10:04:42;;;;;;;4.40;1.38;;;14.10;70.70;;;;;;4930956;28;20048;-77
2023/06/01 10:07:12;;;;;;;4.85;1.65;;;14.10;70.70;;;;;;4931842;28;20044;-78
2023/06/01 10:09:42;;;;;;;6.83;1.10;;;14.20;70.50;;;;;;4933526;28;20054;-78
2023/06/01 10:12:10;;;;;;;5.65;1.42;;;14.20;70.40;;;;;;4933413;28;20276;-78
2023/06/01 10:14:38;;;;;;;7.70;2.38;;;14.10;70.40;;;;;;4927011;28;20060;-79
2023/06/01 10:17:06;;;;;;;8.02;2.38;;;14.10;70.50;;;;;;4930999;28;20060;-77
2023/06/01 10:19:36;;;;;;;6.13;2.25;;;14.00;70.50;;;;;;4964301;28;20091;-77
2023/06/01 10:22:04;;;;;;;7.83;2.50;;;14.10;70.40;;;;;;4940574;28;20050;-78
2023/06/01 10:24:33;;;;;;;4.95;1.80;;;14.10;70.60;;;;;;4952032;28;20261;-76
2023/06/01 10:27:12;;;;;;;7.32;2.17;;;14.10;70.30;;;;;;4930058;28;20055;-76
2023/06/01 10:29:41;;;;;;;4.80;2.00;;;14.00;70.00;;;;;;4933487;28;20054;-81
2023/06/01 10:32:42;;;;;;;7.53;2.10;;;14.00;69.90;;;;;;4940237;28;20517;-80
2023/06/01 10:35:10;;;;;;;5.17;1.27;;;14.00;69.80;;;;;;4935488;28;20939;-78
2023/06/01 10:37:37;;;;;;;7.45;2.17;;;14.00;69.50;;;;;;4923984;29;20285;-78
2023/06/01 10:40:21;;;;;;;6.35;1.90;;;14.00;69.50;;;;;;4928451;28;20064;-80
2023/06/01 10:42:49;;;;;;;7.38;1.80;;;14.00;69.10;;;;;;4961247;28;20044;-78
2023/06/01 10:45:38;;;;;;;8.52;2.20;;;14.00;69.30;;;;;;4931757;29;20076;-77
2023/06/01 10:48:06;;;;;;;7.43;2.43;;;14.00;69.40;;;;;;4933639;28;20060;-79
2023/06/01 10:50:35;;;;;;;8.95;2.22;;;13.90;69.50;;;;;;4941360;28;20710;-79
2023/06/01 10:53:32;;;;;;;8.60;2.72;;;13.90;69.60;;;;;;4927884;29;20052;-78
2023/06/01 10:56:23;;;;;;;8.60;2.47;;;13.90;69.40;;;;;;4924766;28;20055;-78
2023/06/01 10:59:13;;;;;;;8.98;2.47;;;13.90;69.50;;;;;;4935702;28;20095;-78
2023/06/01 11:01:42;;;;;;;8.70;2.50;;;13.90;69.30;;;;;;4939358;28;20163;-80
2023/06/01 11:04:10;;;;;;;10.05;2.80;;;13.90;69.60;;;;;;4929360;28;20276;-81
2023/06/01 11:06:40;;;;;;;10.68;2.97;;;13.90;69.70;;;;;;4936683;28;20059;-79
2023/06/01 11:09:08;;;;;;;6.82;2.17;;;13.90;69.70;;;;;;4936958;28;20063;-80
2023/06/01 11:12:00;;;;;;;9.02;2.25;;;13.90;69.80;;;;;;4935697;28;20043;-78
2023/06/01 11:14:30;;;;;;;7.63;2.20;;;13.90;70.30;;;;;;4932189;28;20048;-79
2023/06/01 11:17:29;;;;;;;8.63;2.35;;;13.90;69.90;;;;;;4934054;28;20273;-79
2023/06/01 11:20:11;;;;;;;11.77;2.80;;;13.90;69.70;;;;;;4930470;28;20048;-78
2023/06/01 11:22:39;;;;;;;7.18;2.63;;;13.90;69.80;;;;;;4954424;28;20063;-79
2023/06/01 11:25:09;;;;;;;6.43;2.55;;;14.00;69.70;;;;;;4933942;28;20163;-81
2023/06/01 11:27:37;;;;;;;7.67;2.10;;;14.00;69.70;;;;;;4929812;29;20051;-78
2023/06/01 11:30:06;;;;;;;5.63;1.63;;;14.10;69.60;;;;;;4929767;28;20341;-80
2023/06/01 11:32:37;;;;;;;7.15;2.10;;;14.10;69.50;;;;;;4932847;28;20052;-79
2023/06/01 11:35:17;;;;;;;6.05;1.90;;;14.10;70.10;;;;;;4931888;28;20052;-81
2023/06/01 11:37:47;;;;;;;6.65;2.20;;;14.10;69.80;;;;;;4935746;28;20055;-81
2023/06/01 11:40:14;;;;;;;8.40;2.30;;;14.20;69.60;;;;;;4930154;29;20044;-81
2023/06/01 11:42:43;;;;;;;6.32;2.38;;;14.20;69.30;;;;;;4956741;28;20296;-81
2023/06/01 11:45:16;;;;;;;7.15;2.10;;;14.20;69.10;;;;;;4929110;29;20064;-81
2023/06/01 11:47:45;;;;;;;8.30;2.10;;;14.30;69.00;;;;;;4929472;28;20052;-81
2023/06/01 11:50:24;;;;;;;9.15;2.60;;;14.30;68.80;;;;;;4928773;29;20048;-82
2023/06/01 11:52:51;;;;;;;6.20;2.07;;;14.30;68.40;;;;;;4928288;29;20535;-81
2023/06/01 11:55:18;;;;;;;6.05;1.70;;;14.30;68.20;;;;;;4910621;29;20263;-81
2023/06/01 11:57:47;;;;;;;9.15;1.80;;;14.30;68.10;;;;;;4926890;29;20139;-81
2023/06/01 12:00:15;;;;;;;8.00;1.92;;;14.30;67.80;;;;;;4930757;29;20067;-82
2023/06/01 12:02:42;;;;;;;5.60;1.70;;;14.40;67.80;;;;;;4934609;28;20057;-81
2023/06/01 12:05:10;;;;;;;6.97;1.77;;;14.40;67.50;;;;;;4929729;29;20064;-81
2023/06/01 12:07:44;;;;;;;9.00;2.25;;;14.40;67.80;;;;;;4931023;29;20383;-81
2023/06/01 12:10:14;;;;;;;7.00;1.70;;;14.40;67.60;;;;;;4930967;29;20048;-81
2023/06/01 12:12:42;;;;;;;7.40;2.08;;;14.50;67.60;;;;;;4946628;28;20116;-82
2023/06/01 12:15:12;;;;;;;7.18;2.15;;;14.50;67.60;;;;;;4930800;29;20052;-81
2023/06/01 12:17:49;;;;;;;8.17;2.20;;;14.50;67.40;;;;;;4930775;28;20925;-81
2023/06/01 12:20:27;;;;;;;9.07;2.38;;;14.60;67.40;;;;;;4946635;28;20245;-81
2023/06/01 12:22:55;;;;;;;7.07;2.40;;;14.60;67.20;;;;;;4930455;29;20087;-82
2023/06/01 12:25:23;;;;;;;11.00;2.28;;;14.60;67.00;;;;;;4930990;29;20522;-80
2023/06/01 12:28:04;;;;;;;8.63;2.38;;;14.60;67.40;;;;;;4912281;29;20092;-81
2023/06/01 12:30:33;;;;;;;7.10;2.20;;;14.60;67.50;;;;;;4914434;29;20163;-82
2023/06/01 12:33:01;;;;;;;6.50;2.00;;;14.70;67.20;;;;;;4946074;28;20401;-80
2023/06/01 12:35:28;;;;;;;5.32;1.58;;;14.70;67.00;;;;;;4935523;28;20052;-80
2023/06/01 12:38:09;;;;;;;8.25;2.30;;;14.70;65.60;;;;;;4964364;28;20050;-80
2023/06/01 12:40:37;;;;;;;9.50;2.08;;;14.70;65.40;;;;;;4932365;29;20105;-81
2023/06/01 12:43:05;;;;;;;5.20;1.57;;;14.70;65.90;;;;;;4932266;29;20591;-80
2023/06/01 12:45:39;;;;;;;9.35;2.22;;;14.70;65.50;;;;;;4940365;28;20279;-80
2023/06/01 12:48:07;;;;;;;6.88;2.10;;;14.60;65.30;;;;;;4948514;28;20059;-80
2023/06/01 12:50:34;;;;;;;8.10;2.17;;;14.60;65.50;;;;;;4933929;28;20147;-81
2023/06/01 12:53:02;;;;;;;5.95;1.85;;;14.60;65.40;;;;;;4933563;29;20860;-82
2023/06/01 12:55:29;;;;;;;7.90;1.80;;;14.70;65.40;;;;;;4935772;28;20108;-81
2023/06/01 12:57:57;;;;;;;8.48;2.40;;;14.70;65.60;;;;;;4934800;29;20276;-81